createdAt,value
2018-02-19T00:00:30.871Z,17.80
2018-02-19T00:02:37.826Z,16.73
2018-02-19T00:04:43.594Z,17.90
2018-02-19T00:06:49.885Z,16.53
2018-02-19T00:08:55.002Z,15.57
2018-02-19T00:11:00.077Z,16.13
2018-02-19T00:13:05.668Z,15.47
2018-02-19T00:15:10.926Z,15.90
2018-02-19T00:17:16.377Z,15.10
2018-02-19T00:19:21.782Z,15.03
2018-02-19T00:21:26.925Z,15.03
2018-02-19T00:23:32.729Z,14.13
2018-02-19T00:25:38.114Z,15.03
2018-02-19T00:27:43.542Z,13.93
2018-02-19T00:29:49.093Z,13.70
2018-02-19T00:31:54.780Z,13.73
2018-02-19T00:34:00.164Z,13.07
2018-02-19T00:36:05.895Z,13.93
2018-02-19T00:38:11.593Z,13.03
2018-02-19T00:40:17.185Z,13.80
2018-02-19T00:42:22.293Z,12.37
2018-02-19T00:44:28.133Z,12.53
2018-02-19T00:46:33.542Z,12.47
2018-02-19T00:48:39.958Z,12.40
2018-02-19T00:50:45.570Z,12.20
2018-02-19T00:52:51.439Z,13.20
2018-02-19T00:54:57.655Z,12.50
2018-02-19T00:57:03.544Z,12.13
2018-02-19T00:59:09.457Z,12.13
2018-02-19T01:01:14.835Z,10.53
2018-02-19T01:03:20.263Z,11.80
2018-02-19T01:05:26.370Z,11.63
2018-02-19T01:10:28.052Z,12.47
2018-02-19T01:12:33.680Z,10.73
2018-02-19T01:14:39.000Z,11.13
2018-02-19T01:16:44.436Z,11.13
2018-02-19T01:18:50.491Z,10.60
2018-02-19T01:20:56.884Z,10.87
2018-02-19T01:23:02.836Z,11.90
2018-02-19T01:25:08.804Z,10.30
2018-02-19T01:27:14.763Z,10.50
2018-02-19T01:29:21.052Z,11.50
2018-02-19T01:31:26.326Z,10.60
2018-02-19T01:33:31.633Z,11.63
2018-02-19T01:35:37.185Z,12.13
2018-02-19T01:37:42.469Z,10.70
2018-02-19T01:39:48.946Z,11.93
2018-02-19T01:41:54.838Z,10.47
2018-02-19T01:44:00.945Z,10.60
2018-02-19T01:46:06.990Z,10.57
2018-02-19T01:48:12.327Z,11.90
2018-02-19T01:50:18.432Z,11.30
2018-02-19T01:52:24.172Z,11.00
2018-02-19T01:54:29.861Z,10.47
2018-02-19T01:56:35.687Z,11.10
2018-02-19T01:58:41.456Z,11.40
2018-02-19T02:00:47.741Z,11.57
2018-02-19T02:02:53.291Z,10.80
2018-02-19T02:04:59.668Z,11.33
2018-02-19T02:07:04.978Z,11.40
2018-02-19T02:09:11.455Z,10.97
2018-02-19T02:11:17.389Z,11.00
2018-02-19T02:13:22.755Z,10.70
2018-02-19T02:15:28.783Z,10.50
2018-02-19T02:17:34.639Z,9.50
2018-02-19T02:19:40.316Z,10.80
2018-02-19T02:21:46.843Z,9.97
2018-02-19T02:23:52.600Z,10.83
2018-02-19T02:25:58.628Z,10.00
2018-02-19T02:28:03.944Z,9.77
2018-02-19T02:30:09.596Z,10.20
2018-02-19T02:32:15.325Z,10.43
2018-02-19T02:34:21.963Z,10.37
2018-02-19T02:36:27.767Z,9.83
2018-02-19T02:38:33.833Z,10.60
2018-02-19T02:40:39.752Z,10.20
2018-02-19T02:42:45.077Z,9.47
2018-02-19T02:44:50.619Z,9.93
2018-02-19T02:46:56.820Z,8.67
2018-02-19T02:49:02.691Z,9.27
2018-02-19T02:51:08.372Z,10.00
2018-02-19T02:53:14.182Z,9.70
2018-02-19T02:55:20.344Z,9.10
2018-02-19T02:57:26.071Z,9.70
2018-02-19T02:59:32.140Z,8.60
2018-02-19T03:01:37.944Z,9.00
2018-02-19T03:03:43.672Z,10.33
2018-02-19T03:05:49.572Z,9.60
2018-02-19T03:07:55.432Z,9.50
2018-02-19T03:10:01.539Z,8.60
2018-02-19T03:12:07.597Z,9.10
2018-02-19T03:14:14.115Z,8.20
2018-02-19T03:16:34.393Z,8.97
2018-02-19T03:18:40.535Z,9.13
2018-02-19T03:20:46.543Z,9.23
2018-02-19T03:22:52.326Z,9.23
2018-02-19T03:24:58.798Z,8.50
2018-02-19T03:27:04.960Z,9.23
2018-02-19T03:29:10.169Z,9.00
2018-02-19T03:31:16.075Z,9.43
2018-02-19T03:33:21.584Z,9.30
2018-02-19T03:35:27.710Z,9.33
2018-02-19T03:37:33.679Z,9.43
2018-02-19T03:39:39.204Z,8.63
2018-02-19T03:41:45.577Z,9.57
2018-02-19T03:43:52.519Z,9.27
2018-02-19T03:45:57.915Z,9.70
2018-02-19T03:48:08.364Z,8.37
2018-02-19T03:50:14.213Z,8.33
2018-02-19T03:52:22.144Z,8.83
2018-02-19T03:54:28.014Z,9.27
2018-02-19T03:56:35.072Z,8.53
2018-02-19T03:58:45.023Z,8.90
2018-02-19T04:00:50.429Z,8.23
2018-02-19T04:02:56.639Z,9.00
2018-02-19T04:05:05.246Z,8.90
2018-02-19T04:07:10.614Z,8.50
2018-02-19T04:09:16.396Z,8.47
2018-02-19T04:11:22.794Z,9.40
2018-02-19T04:13:29.520Z,8.70
2018-02-19T04:15:36.036Z,9.37
2018-02-19T04:17:45.253Z,8.70
2018-02-19T04:19:54.104Z,8.37
2018-02-19T04:21:59.845Z,8.10
2018-02-19T04:24:06.567Z,8.33
2018-02-19T04:26:13.154Z,8.97
2018-02-19T04:28:19.205Z,7.90
2018-02-19T04:30:24.956Z,9.00
2018-02-19T04:32:30.331Z,9.53
2018-02-19T04:34:35.632Z,9.70
2018-02-19T04:36:42.163Z,9.13
2018-02-19T04:38:47.873Z,9.00
2018-02-19T04:40:53.250Z,9.27
2018-02-19T04:42:58.690Z,9.73
2018-02-19T04:45:04.528Z,9.70
2018-02-19T04:47:10.063Z,8.90
2018-02-19T04:49:15.336Z,9.27
2018-02-19T04:51:20.749Z,8.77
2018-02-19T04:53:26.434Z,9.60
2018-02-19T04:55:32.020Z,9.10
2018-02-19T04:57:37.940Z,9.10
2018-02-19T04:59:43.556Z,9.00
2018-02-19T05:01:49.294Z,8.97
2018-02-19T05:03:54.643Z,9.13
2018-02-19T05:05:59.907Z,8.90
2018-02-19T05:08:05.175Z,9.33
2018-02-19T05:10:10.866Z,9.00
2018-02-19T05:12:16.245Z,9.93
2018-02-19T05:14:21.611Z,8.97
2018-02-19T05:16:27.119Z,9.03
2018-02-19T05:18:33.326Z,8.60
2018-02-19T05:20:38.916Z,9.53
2018-02-19T05:22:44.645Z,8.93
2018-02-19T05:24:50.304Z,10.00
2018-02-19T05:26:55.951Z,8.60
2018-02-19T05:29:01.262Z,8.97
2018-02-19T05:31:06.608Z,9.27
2018-02-19T05:33:12.016Z,9.60
2018-02-19T05:35:18.052Z,9.73
2018-02-19T05:37:23.980Z,9.20
2018-02-19T05:39:29.860Z,9.47
2018-02-19T05:41:35.183Z,9.07
2018-02-19T05:43:40.812Z,9.20
2018-02-19T05:45:46.124Z,10.53
2018-02-19T05:47:51.435Z,8.73
2018-02-19T05:49:57.727Z,9.17
2018-02-19T05:52:02.983Z,9.80
2018-02-19T05:54:08.260Z,9.17
2018-02-19T05:57:37.915Z,9.90
2018-02-19T05:59:43.527Z,9.20
2018-02-19T06:01:49.128Z,9.73
2018-02-19T06:03:55.134Z,9.30
2018-02-19T06:06:01.048Z,8.80
2018-02-19T06:08:06.424Z,8.97
2018-02-19T06:10:12.567Z,8.97
2018-02-19T06:12:17.819Z,9.37
2018-02-19T06:14:23.062Z,8.97
2018-02-19T06:16:28.671Z,9.53
2018-02-19T06:18:34.016Z,9.50
2018-02-19T06:20:40.578Z,9.30
2018-02-19T06:22:46.450Z,9.23
2018-02-19T06:24:52.259Z,8.50
2018-02-19T06:26:57.509Z,8.60
2018-02-19T06:29:03.143Z,10.60
2018-02-19T06:31:08.340Z,9.40
2018-02-19T06:33:13.584Z,10.03
2018-02-19T06:35:20.657Z,384.60
2018-02-19T06:37:25.928Z,318.07
2018-02-19T06:39:32.279Z,579.40
2018-02-19T06:41:38.532Z,868.83
2018-02-19T06:43:43.803Z,633.70
2018-02-19T06:45:49.071Z,956.17
2018-02-19T06:47:54.620Z,593.63
2018-02-19T06:49:59.888Z,391.20
2018-02-19T06:52:05.761Z,487.63
2018-02-19T06:54:12.459Z,547.67
2018-02-19T06:56:17.796Z,650.17
2018-02-19T06:58:23.381Z,981.17
2018-02-19T07:00:29.671Z,852.40
2018-02-19T07:02:34.957Z,628.77
2018-02-19T07:04:40.278Z,130.10
2018-02-19T07:06:45.944Z,37.00
2018-02-19T07:08:51.132Z,23.60
2018-02-19T07:10:56.410Z,18.60
2018-02-19T07:13:01.945Z,14.93
2018-02-19T07:15:07.527Z,343.23
2018-02-19T07:17:13.804Z,987.53
2018-02-19T07:19:19.386Z,999.90
2018-02-19T07:21:24.655Z,999.90
2018-02-19T07:23:30.514Z,978.37
2018-02-19T07:25:36.077Z,982.73
2018-02-19T07:27:42.033Z,316.83
2018-02-19T07:29:47.327Z,999.90
2018-02-19T07:31:54.171Z,267.70
2018-02-19T07:33:59.440Z,999.90
2018-02-19T07:36:04.828Z,999.90
2018-02-19T07:38:10.933Z,772.80
2018-02-19T07:40:16.142Z,759.13
2018-02-19T07:42:21.435Z,745.30
2018-02-19T07:44:27.416Z,749.63
2018-02-19T07:46:32.684Z,758.17
2018-02-19T07:48:38.528Z,999.90
2018-02-19T07:50:44.209Z,715.77
2018-02-19T07:52:49.460Z,266.00
2018-02-19T07:54:54.725Z,118.00
2018-02-19T07:57:00.513Z,67.17
2018-02-19T07:59:06.576Z,35.80
2018-02-19T08:01:11.936Z,25.47
2018-02-19T08:03:17.825Z,586.30
2018-02-19T08:05:23.142Z,999.90
2018-02-19T08:07:28.420Z,726.73
2018-02-19T08:09:34.000Z,303.67
2018-02-19T08:11:39.267Z,178.77
2018-02-19T08:13:44.576Z,51.60
2018-02-19T08:15:50.388Z,962.33
2018-02-19T08:17:56.004Z,154.67
2018-02-19T08:20:01.320Z,70.23
2018-02-19T08:22:06.012Z,999.90
2018-02-19T08:24:12.213Z,352.83
2018-02-19T08:26:18.010Z,153.00
2018-02-19T08:28:23.712Z,39.30
2018-02-19T08:30:29.811Z,26.23
2018-02-19T08:32:35.103Z,892.20
2018-02-19T08:34:40.892Z,890.67
2018-02-19T08:36:46.499Z,383.27
2018-02-19T08:38:52.251Z,410.80
2018-02-19T08:40:58.214Z,47.33
2018-02-19T08:43:03.580Z,26.70
2018-02-19T08:45:09.600Z,869.40
2018-02-19T08:47:14.967Z,228.27
2018-02-19T08:49:20.409Z,708.57
2018-02-19T08:51:27.000Z,999.90
2018-02-19T08:53:32.405Z,707.60
2018-02-19T08:55:38.047Z,999.90
2018-02-19T08:57:43.935Z,986.43
2018-02-19T08:59:49.259Z,910.47
2018-02-19T09:01:55.301Z,346.60
2018-02-19T09:04:00.824Z,73.57
2018-02-19T09:06:06.088Z,886.00
2018-02-19T09:08:11.360Z,732.97
2018-02-19T09:10:16.980Z,556.80
2018-02-19T09:12:22.208Z,453.37
2018-02-19T09:14:27.543Z,271.70
2018-02-19T09:16:33.771Z,757.37
2018-02-19T09:18:38.985Z,143.30
2018-02-19T09:20:44.201Z,66.40
2018-02-19T09:22:50.767Z,36.43
2018-02-19T09:24:56.075Z,36.70
2018-02-19T09:27:01.921Z,928.97
2018-02-19T09:29:07.657Z,761.03
2018-02-19T09:31:13.405Z,927.27
2018-02-19T09:33:18.794Z,745.50
2018-02-19T09:35:24.509Z,132.73
2018-02-19T09:37:29.816Z,764.47
2018-02-19T09:39:35.068Z,421.73
2018-02-19T09:41:41.312Z,953.53
2018-02-19T09:43:47.383Z,999.90
2018-02-19T09:45:52.813Z,967.00
2018-02-19T09:47:58.343Z,789.70
2018-02-19T09:50:04.380Z,761.20
2018-02-19T09:52:09.676Z,843.07
2018-02-19T09:54:15.337Z,559.63
2018-02-19T09:56:21.240Z,999.90
2018-02-19T09:58:26.559Z,634.63
2018-02-19T10:00:32.365Z,249.03
2018-02-19T10:02:37.588Z,227.47
2018-02-19T10:04:43.700Z,784.70
2018-02-19T10:06:49.309Z,956.87
2018-02-19T10:08:55.636Z,825.97
2018-02-19T10:11:02.557Z,589.53
2018-02-19T10:13:08.412Z,703.37
2018-02-19T10:15:13.784Z,770.90
2018-02-19T10:17:19.081Z,878.70
2018-02-19T10:19:25.661Z,899.17
2018-02-19T10:21:31.530Z,643.03
2018-02-19T10:23:37.627Z,314.97
2018-02-19T10:25:43.393Z,153.13
2018-02-19T10:27:48.813Z,99.13
2018-02-19T10:29:54.169Z,57.50
2018-02-19T10:31:59.909Z,43.80
2018-02-19T10:34:05.450Z,31.70
2018-02-19T10:36:10.818Z,27.93
2018-02-19T10:38:16.347Z,24.40
2018-02-19T10:40:22.020Z,22.87
2018-02-19T10:42:28.695Z,19.90
2018-02-19T10:44:34.327Z,17.33
2018-02-19T10:46:40.068Z,16.53
2018-02-19T10:48:45.895Z,15.33
2018-02-19T10:50:51.507Z,16.50
2018-02-19T10:52:56.803Z,16.10
2018-02-19T10:55:02.176Z,15.53
2018-02-19T10:57:07.680Z,15.47
2018-02-19T10:59:12.990Z,14.30
2018-02-19T11:01:18.432Z,15.37
2018-02-19T11:03:24.262Z,15.27
2018-02-19T11:05:29.686Z,97.20
2018-02-19T11:07:34.914Z,276.57
2018-02-19T11:09:40.431Z,999.90
2018-02-19T11:11:45.727Z,296.07
2018-02-19T11:13:51.521Z,999.90
2018-02-19T11:15:57.125Z,756.20
2018-02-19T11:18:02.320Z,786.40
2018-02-19T11:20:09.016Z,89.90
2018-02-19T11:22:15.356Z,999.90
2018-02-19T11:24:20.853Z,777.23
2018-02-19T11:26:27.163Z,560.03
2018-02-19T11:28:36.593Z,999.90
2018-02-19T11:30:41.963Z,420.40
2018-02-19T11:32:47.413Z,910.93
2018-02-19T11:34:53.090Z,278.60
2018-02-19T11:36:58.407Z,883.97
2018-02-19T11:39:03.709Z,499.80
2018-02-19T11:41:09.626Z,204.30
2018-02-19T11:43:14.923Z,349.57
2018-02-19T11:45:20.785Z,999.90
2018-02-19T11:47:27.059Z,999.90
2018-02-19T11:49:32.404Z,213.47
2018-02-19T11:51:38.710Z,80.47
2018-02-19T11:53:44.336Z,42.07
2018-02-19T11:55:50.456Z,999.90
2018-02-19T11:57:55.882Z,220.80
2018-02-19T12:00:02.328Z,518.40
2018-02-19T12:02:07.657Z,281.73
2018-02-19T12:04:13.375Z,935.70
2018-02-19T12:06:19.012Z,110.73
2018-02-19T12:08:26.058Z,969.13
2018-02-19T12:10:32.658Z,591.20
2018-02-19T12:12:39.539Z,74.93
2018-02-19T12:14:45.105Z,999.90
2018-02-19T12:16:51.372Z,739.27
2018-02-19T12:18:57.708Z,999.90
2018-02-19T12:21:03.655Z,513.37
2018-02-19T12:23:09.252Z,158.07
2018-02-19T12:25:15.736Z,39.17
2018-02-19T12:27:21.177Z,999.90
2018-02-19T12:29:26.413Z,999.90
2018-02-19T12:31:32.499Z,702.80
2018-02-19T12:33:37.895Z,121.73
2018-02-19T12:35:44.102Z,38.70
2018-02-19T12:37:49.939Z,27.33
2018-02-19T12:39:55.948Z,26.17
2018-02-19T12:42:01.566Z,238.27
2018-02-19T12:44:07.463Z,50.43
2018-02-19T12:46:12.838Z,25.10
2018-02-19T12:48:18.300Z,23.20
2018-02-19T12:50:23.898Z,18.37
2018-02-19T12:52:29.194Z,112.77
2018-02-19T12:54:34.963Z,16.50
2018-02-19T12:56:40.671Z,18.60
2018-02-19T12:58:46.325Z,88.47
2018-02-19T13:00:51.655Z,155.60
2018-02-19T13:02:58.813Z,20.57
2018-02-19T13:05:04.560Z,18.10
2018-02-19T13:07:09.984Z,18.47
2018-02-19T13:09:17.756Z,992.40
2018-02-19T13:11:23.889Z,22.90
2018-02-19T13:13:30.608Z,19.40
2018-02-19T13:15:36.440Z,14.60
2018-02-19T13:17:41.749Z,14.63
2018-02-19T13:19:47.165Z,15.73
2018-02-19T13:21:52.968Z,999.90
2018-02-19T13:23:58.387Z,861.67
2018-02-19T13:26:04.520Z,164.33
2018-02-19T13:28:10.140Z,827.07
2018-02-19T13:30:18.348Z,808.87
2018-02-19T13:32:23.720Z,112.27
2018-02-19T13:34:29.329Z,27.73
2018-02-19T13:36:35.283Z,19.60
2018-02-19T13:38:40.971Z,18.37
2018-02-19T13:40:48.355Z,375.83
2018-02-19T13:42:53.716Z,26.83
2018-02-19T13:44:59.053Z,18.47
2018-02-19T13:47:04.792Z,188.80
2018-02-19T13:49:11.505Z,66.23
2018-02-19T13:51:16.904Z,999.90
2018-02-19T13:53:22.597Z,150.17
2018-02-19T13:55:28.508Z,42.33
2018-02-19T13:57:33.902Z,105.90
2018-02-19T13:59:39.609Z,874.00
2018-02-19T14:01:46.075Z,999.90
2018-02-19T14:03:51.698Z,999.90
2018-02-19T14:05:57.435Z,136.53
2018-02-19T14:08:02.931Z,975.23
2018-02-19T14:10:07.925Z,999.90
2018-02-19T14:12:13.861Z,873.13
2018-02-19T14:14:19.285Z,999.90
2018-02-19T14:16:24.639Z,582.10
2018-02-19T14:18:30.372Z,999.90
2018-02-19T14:20:35.724Z,368.00
2018-02-19T14:22:41.128Z,999.90
2018-02-19T14:24:51.172Z,999.90
2018-02-19T14:26:56.528Z,999.90
2018-02-19T14:29:02.101Z,695.23
2018-02-19T14:31:07.653Z,193.00
2018-02-19T14:33:12.939Z,999.90
2018-02-19T14:35:18.536Z,999.90
2018-02-19T14:37:24.190Z,803.67
2018-02-19T14:39:30.194Z,205.70
2018-02-19T14:41:35.994Z,72.00
2018-02-19T14:43:42.190Z,44.90
2018-02-19T14:45:49.060Z,34.10
2018-02-19T14:47:54.479Z,27.70
2018-02-19T14:50:00.323Z,24.90
2018-02-19T14:52:05.722Z,23.23
2018-02-19T14:54:11.919Z,787.67
2018-02-19T14:56:17.668Z,111.13
2018-02-19T14:58:23.055Z,32.30
2018-02-19T15:00:28.283Z,22.50
2018-02-19T15:02:33.988Z,21.17
2018-02-19T15:04:39.335Z,19.30
2018-02-19T15:06:44.604Z,19.40
2018-02-19T15:08:50.141Z,19.67
2018-02-19T15:10:56.468Z,18.53
2018-02-19T15:13:01.740Z,17.90
2018-02-19T15:16:31.591Z,18.87
2018-02-19T15:20:02.428Z,255.53
2018-02-19T15:22:08.040Z,931.30
2018-02-19T15:24:13.820Z,782.07
2018-02-19T15:26:19.208Z,841.03
2018-02-19T15:28:24.802Z,999.90
2018-02-19T15:30:30.324Z,999.90
2018-02-19T15:32:35.782Z,695.60
2018-02-19T15:34:45.829Z,380.60
2018-02-19T15:36:51.266Z,161.37
2018-02-19T15:38:56.992Z,288.63
2018-02-19T15:41:02.770Z,693.17
2018-02-19T15:43:07.971Z,722.77
2018-02-19T15:45:13.452Z,837.63
2018-02-19T15:47:19.080Z,427.00
2018-02-19T15:49:24.437Z,163.13
2018-02-19T15:51:30.469Z,104.00
2018-02-19T15:53:36.235Z,59.43
2018-02-19T15:55:42.468Z,43.90
2018-02-19T15:57:47.973Z,32.77
2018-02-19T15:59:54.477Z,29.33
2018-02-19T16:01:59.931Z,27.80
2018-02-19T16:04:06.766Z,826.40
2018-02-19T16:06:12.664Z,191.60
2018-02-19T16:08:20.341Z,42.80
2018-02-19T16:10:26.078Z,31.90
2018-02-19T16:12:31.692Z,28.53
2018-02-19T16:14:38.330Z,28.47
2018-02-19T16:16:45.380Z,26.77
2018-02-19T16:18:52.055Z,24.93
2018-02-19T16:20:58.207Z,353.77
2018-02-19T16:23:04.906Z,79.30
2018-02-19T16:25:17.252Z,747.10
2018-02-19T16:27:26.961Z,109.33
2018-02-19T16:29:32.378Z,37.93
2018-02-19T16:31:40.872Z,31.20
2018-02-19T16:33:46.314Z,28.63
2018-02-19T16:35:51.622Z,27.13
2018-02-19T16:37:57.386Z,25.00
2018-02-19T16:40:02.873Z,23.53
2018-02-19T16:42:08.180Z,24.90
2018-02-19T16:44:13.827Z,23.00
2018-02-19T16:46:19.456Z,21.53
2018-02-19T16:48:24.848Z,20.90
2018-02-19T16:50:30.561Z,21.57
2018-02-19T16:52:35.800Z,22.20
2018-02-19T16:54:41.297Z,21.50
2018-02-19T16:56:46.938Z,21.37
2018-02-19T16:58:52.913Z,20.90
2018-02-19T17:00:58.189Z,20.90
2018-02-19T17:03:03.842Z,20.13
2018-02-19T17:05:09.083Z,19.13
2018-02-19T17:07:14.708Z,19.23
2018-02-19T17:09:20.188Z,19.67
2018-02-19T17:11:25.476Z,19.03
2018-02-19T17:13:30.908Z,19.87
2018-02-19T17:15:36.488Z,19.70
2018-02-19T17:17:41.984Z,20.33
2018-02-19T17:19:47.344Z,999.90
2018-02-19T17:21:53.457Z,983.73
2018-02-19T17:23:59.078Z,356.10
2018-02-19T17:26:04.625Z,81.40
2018-02-19T17:28:11.838Z,56.30
2018-02-19T17:30:17.156Z,49.40
2018-02-19T17:32:22.461Z,54.07
2018-02-19T17:34:28.317Z,65.63
2018-02-19T17:36:33.872Z,82.97
2018-02-19T17:38:39.150Z,80.60
2018-02-19T17:42:08.828Z,84.70
2018-02-19T17:44:14.180Z,51.37
2018-02-19T17:46:19.796Z,40.20
2018-02-19T17:48:25.125Z,36.27
2018-02-19T17:50:30.408Z,32.43
2018-02-19T17:52:35.975Z,29.90
2018-02-19T17:54:41.341Z,27.20
2018-02-19T17:56:46.795Z,27.20
2018-02-19T17:58:53.118Z,49.70
2018-02-19T18:00:58.497Z,999.90
2018-02-19T18:03:03.892Z,856.57
2018-02-19T18:05:09.648Z,710.13
2018-02-19T18:07:14.991Z,909.37
2018-02-19T18:09:20.426Z,999.90
2018-02-19T18:11:26.184Z,785.43
2018-02-19T18:14:56.892Z,672.37
2018-02-19T18:17:02.508Z,826.47
2018-02-19T18:19:07.855Z,866.33
2018-02-19T18:21:13.172Z,677.97
2018-02-19T18:23:18.784Z,468.57
2018-02-19T18:25:24.174Z,272.90
2018-02-19T18:27:29.544Z,151.07
2018-02-19T18:29:35.140Z,94.57
2018-02-19T18:31:40.496Z,58.90
2018-02-19T18:33:45.804Z,339.20
2018-02-19T18:35:53.689Z,744.53
2018-02-19T18:37:59.185Z,463.20
2018-02-19T18:40:04.830Z,136.20
2018-02-19T18:42:10.709Z,49.90
2018-02-19T18:44:16.017Z,33.80
2018-02-19T18:46:21.322Z,29.47
2018-02-19T18:48:26.848Z,27.43
2018-02-19T18:50:32.552Z,24.33
2018-02-19T18:52:37.925Z,23.83
2018-02-19T18:54:43.728Z,21.80
2018-02-19T18:56:49.253Z,21.97
2018-02-19T18:58:54.808Z,20.53
2018-02-19T19:01:00.640Z,20.47
2018-02-19T19:03:08.078Z,19.90
2018-02-19T19:05:13.631Z,19.87
2018-02-19T19:07:30.064Z,22.80
2018-02-19T19:11:46.803Z,23.27
2018-02-19T19:13:52.402Z,25.70
2018-02-19T19:15:58.752Z,33.57
2018-02-19T19:18:08.124Z,38.30
2018-02-19T19:20:13.967Z,50.77
2018-02-19T19:22:20.143Z,57.13
2018-02-19T19:24:25.568Z,56.30
2018-02-19T19:26:31.563Z,53.57
2018-02-19T19:28:37.164Z,53.20
2018-02-19T19:30:42.587Z,52.70
